sensor_id;sensor_type;location;lat;lon;timestamp;pressure;altitude;pressure_sealevel;temperature;humidity
75794;BME280;64418;47.536;19.074;2024-01-10T00:15:42;102009.97;;;-4.59;86.71
75794;BME280;64418;47.536;19.074;2024-01-10T00:18:10;102005.63;;;-4.60;87.14
75794;BME280;64418;47.536;19.074;2024-01-10T00:20:37;102018.97;;;-4.63;87.93
75794;BME280;64418;47.536;19.074;2024-01-10T00:23:04;102020.72;;;-4.62;88.63
75794;BME280;64418;47.536;19.074;2024-01-10T00:25:32;102012.81;;;-4.64;89.43
75794;BME280;64418;47.536;19.074;2024-01-10T00:30:37;102018.47;;;-4.71;91.75
75794;BME280;64418;47.536;19.074;2024-01-10T00:33:06;102013.59;;;-4.80;92.24
75794;BME280;64418;47.536;19.074;2024-01-10T00:38:14;102026.53;;;-4.74;95.47
75794;BME280;64418;47.536;19.074;2024-01-10T00:40:45;102022.44;;;-4.81;95.70
75794;BME280;64418;47.536;19.074;2024-01-10T00:43:15;102024.03;;;-4.98;95.31
75794;BME280;64418;47.536;19.074;2024-01-10T00:45:45;102017.22;;;-4.83;97.80
75794;BME280;64418;47.536;19.074;2024-01-10T00:53:25;102028.50;;;-4.79;100.00
75794;BME280;64418;47.536;19.074;2024-01-10T00:55:52;102019.03;;;-4.83;100.00
75794;BME280;64418;47.536;19.074;2024-01-10T00:58:19;102024.56;;;-4.90;100.00
75794;BME280;64418;47.536;19.074;2024-01-10T01:00:46;101986.91;;;-4.95;100.00
75794;BME280;64418;47.536;19.074;2024-01-10T01:03:12;102025.25;;;-4.84;100.00
75794;BME280;64418;47.536;19.074;2024-01-10T01:05:39;101934.75;;;-5.49;100.00
75794;BME280;64418;47.536;19.074;2024-01-10T01:08:06;102035.22;;;-4.91;100.00
75794;BME280;64418;47.536;19.074;2024-01-10T01:10:35;102037.88;;;-4.91;100.00
75794;BME280;64418;47.536;19.074;2024-01-10T01:13:03;102023.91;;;-4.95;100.00
75794;BME280;64418;47.536;19.074;2024-01-10T01:15:36;102027.50;;;-4.96;100.00
75794;BME280;64418;47.536;19.074;2024-01-10T01:18:03;102027.03;;;-5.05;98.70
75794;BME280;64418;47.536;19.074;2024-01-10T01:20:29;102023.06;;;-5.15;98.40
75794;BME280;64418;47.536;19.074;2024-01-10T01:22:56;102025.00;;;-5.19;98.04
75794;BME280;64418;47.536;19.074;2024-01-10T01:25:24;102032.72;;;-5.14;97.95
75794;BME280;64418;47.536;19.074;2024-01-10T01:28:02;101990.09;;;-5.47;97.71
75794;BME280;64418;47.536;19.074;2024-01-10T01:30:29;102024.25;;;-5.22;97.97
75794;BME280;64418;47.536;19.074;2024-01-10T01:32:55;102027.97;;;-5.26;98.42
75794;BME280;64418;47.536;19.074;2024-01-10T01:35:22;102016.16;;;-5.18;99.27
75794;BME280;64418;47.536;19.074;2024-01-10T01:37:49;102024.25;;;-5.22;99.00
75794;BME280;64418;47.536;19.074;2024-01-10T01:40:22;102022.87;;;-5.11;99.71
75794;BME280;64418;47.536;19.074;2024-01-10T01:42:53;101985.13;;;-5.33;99.50
75794;BME280;64418;47.536;19.074;2024-01-10T01:45:22;102028.53;;;-5.20;100.00
75794;BME280;64418;47.536;19.074;2024-01-10T01:47:49;102023.75;;;-5.10;100.00
75794;BME280;64418;47.536;19.074;2024-01-10T01:50:16;102017.47;;;-5.08;100.00
75794;BME280;64418;47.536;19.074;2024-01-10T01:52:50;102008.94;;;-5.14;100.00
75794;BME280;64418;47.536;19.074;2024-01-10T01:55:20;102015.81;;;-5.10;100.00
75794;BME280;64418;47.536;19.074;2024-01-10T01:57:47;102014.00;;;-5.10;100.00
75794;BME280;64418;47.536;19.074;2024-01-10T02:00:19;102018.19;;;-5.04;100.00
75794;BME280;64418;47.536;19.074;2024-01-10T02:02:51;102014.16;;;-5.13;100.00
75794;BME280;64418;47.536;19.074;2024-01-10T02:05:25;102014.16;;;-5.13;100.00
75794;BME280;64418;47.536;19.074;2024-01-10T02:07:55;102016.78;;;-5.13;100.00
75794;BME280;64418;47.536;19.074;2024-01-10T02:10:21;101950.06;;;-5.57;100.00
75794;BME280;64418;47.536;19.074;2024-01-10T02:12:55;102012.56;;;-5.17;100.00
75794;BME280;64418;47.536;19.074;2024-01-10T02:15:27;102014.41;;;-5.19;100.00
75794;BME280;64418;47.536;19.074;2024-01-10T02:20:29;102007.81;;;-5.29;100.00
75794;BME280;64418;47.536;19.074;2024-01-10T02:25:32;102007.34;;;-5.39;100.00
75794;BME280;64418;47.536;19.074;2024-01-10T02:28:02;102010.06;;;-5.40;100.00
75794;BME280;64418;47.536;19.074;2024-01-10T02:35:45;101998.88;;;-5.47;100.00
75794;BME280;64418;47.536;19.074;2024-01-10T02:38:14;102003.06;;;-5.41;100.00
75794;BME280;64418;47.536;19.074;2024-01-10T02:40:48;102006.03;;;-5.49;100.00
75794;BME280;64418;47.536;19.074;2024-01-10T02:45:51;102003.63;;;-5.55;100.00
75794;BME280;64418;47.536;19.074;2024-01-10T02:48:18;101967.53;;;-5.74;100.00
75794;BME280;64418;47.536;19.074;2024-01-10T02:51:01;102005.53;;;-5.58;100.00
75794;BME280;64418;47.536;19.074;2024-01-10T02:53:30;102000.66;;;-5.67;100.00
75794;BME280;64418;47.536;19.074;2024-01-10T02:56:14;102001.38;;;-5.64;100.00
75794;BME280;64418;47.536;19.074;2024-01-10T03:03:59;102012.19;;;-5.70;100.00
75794;BME280;64418;47.536;19.074;2024-01-10T03:14:16;102006.69;;;-5.86;100.00
75794;BME280;64418;47.536;19.074;2024-01-10T03:19:20;102009.97;;;-5.80;100.00
75794;BME280;64418;47.536;19.074;2024-01-10T03:27:01;102010.13;;;-5.84;100.00
75794;BME280;64418;47.536;19.074;2024-01-10T03:29:34;102009.75;;;-5.74;100.00
75794;BME280;64418;47.536;19.074;2024-01-10T03:32:07;102010.72;;;-5.77;100.00
75794;BME280;64418;47.536;19.074;2024-01-10T03:37:06;102000.28;;;-5.80;100.00
75794;BME280;64418;47.536;19.074;2024-01-10T03:39:32;102001.94;;;-5.77;100.00
75794;BME280;64418;47.536;19.074;2024-01-10T03:42:02;102010.13;;;-5.84;100.00
75794;BME280;64418;47.536;19.074;2024-01-10T03:52:13;102001.41;;;-5.86;100.00
75794;BME280;64418;47.536;19.074;2024-01-10T03:54:40;102004.50;;;-5.96;100.00
75794;BME280;64418;47.536;19.074;2024-01-10T03:57:12;102001.34;;;-5.84;100.00
75794;BME280;64418;47.536;19.074;2024-01-10T04:04:52;102000.34;;;-6.02;100.00
75794;BME280;64418;47.536;19.074;2024-01-10T04:07:22;102007.75;;;-5.90;100.00
75794;BME280;64418;47.536;19.074;2024-01-10T04:09:52;101995.53;;;-5.92;100.00
75794;BME280;64418;47.536;19.074;2024-01-10T04:12:31;102002.34;;;-5.87;100.00
75794;BME280;64418;47.536;19.074;2024-01-10T04:15:02;101998.38;;;-5.97;100.00
75794;BME280;64418;47.536;19.074;2024-01-10T04:17:32;102002.97;;;-6.02;100.00
75794;BME280;64418;47.536;19.074;2024-01-10T04:20:02;102006.47;;;-6.01;100.00
75794;BME280;64418;47.536;19.074;2024-01-10T04:22:34;102003.72;;;-5.98;100.00
75794;BME280;64418;47.536;19.074;2024-01-10T04:25:12;101949.28;;;-6.44;100.00
75794;BME280;64418;47.536;19.074;2024-01-10T04:27:40;102007.81;;;-6.13;100.00
75794;BME280;64418;47.536;19.074;2024-01-10T04:30:08;102010.94;;;-6.03;100.00
75794;BME280;64418;47.536;19.074;2024-01-10T04:32:35;101974.94;;;-6.26;100.00
75794;BME280;64418;47.536;19.074;2024-01-10T04:35:05;101992.78;;;-6.11;100.00
75794;BME280;64418;47.536;19.074;2024-01-10T04:42:45;102010.59;;;-6.16;100.00
75794;BME280;64418;47.536;19.074;2024-01-10T04:45:16;102018.50;;;-6.16;100.00
75794;BME280;64418;47.536;19.074;2024-01-10T04:50:21;102023.78;;;-6.16;100.00
75794;BME280;64418;47.536;19.074;2024-01-10T04:52:50;102030.13;;;-6.21;100.00
75794;BME280;64418;47.536;19.074;2024-01-10T04:55:17;101979.50;;;-6.53;100.00
75794;BME280;64418;47.536;19.074;2024-01-10T04:57:50;102032.28;;;-6.31;100.00
75794;BME280;64418;47.536;19.074;2024-01-10T05:00:17;102027.03;;;-6.32;100.00
75794;BME280;64418;47.536;19.074;2024-01-10T05:02:44;101999.78;;;-6.55;100.00
75794;BME280;64418;47.536;19.074;2024-01-10T05:05:10;101989.66;;;-6.42;100.00
75794;BME280;64418;47.536;19.074;2024-01-10T05:07:37;102007.84;;;-6.36;100.00
75794;BME280;64418;47.536;19.074;2024-01-10T05:10:04;102033.87;;;-6.27;100.00
75794;BME280;64418;47.536;19.074;2024-01-10T05:12:30;102040.91;;;-6.27;100.00
75794;BME280;64418;47.536;19.074;2024-01-10T05:15:05;102031.16;;;-6.25;100.00
75794;BME280;64418;47.536;19.074;2024-01-10T05:17:33;102025.16;;;-6.29;100.00
75794;BME280;64418;47.536;19.074;2024-01-10T05:20:01;101970.28;;;-6.64;100.00
75794;BME280;64418;47.536;19.074;2024-01-10T05:24:57;101969.72;;;-6.72;100.00
75794;BME280;64418;47.536;19.074;2024-01-10T05:27:27;102036.50;;;-6.27;100.00
75794;BME280;64418;47.536;19.074;2024-01-10T05:29:55;102032.06;;;-6.26;100.00
75794;BME280;64418;47.536;19.074;2024-01-10T05:32:23;102033.87;;;-6.27;100.00
75794;BME280;64418;47.536;19.074;2024-01-10T05:34:49;102038.94;;;-6.22;100.00
75794;BME280;64418;47.536;19.074;2024-01-10T05:37:16;102032.03;;;-6.25;100.00
75794;BME280;64418;47.536;19.074;2024-01-10T05:39:43;101948.00;;;-6.79;100.00
75794;BME280;64418;47.536;19.074;2024-01-10T05:42:12;102030.13;;;-6.21;100.00
75794;BME280;64418;47.536;19.074;2024-01-10T05:44:43;102036.56;;;-6.28;100.00
75794;BME280;64418;47.536;19.074;2024-01-10T05:47:12;102035.69;;;-6.29;100.00
75794;BME280;64418;47.536;19.074;2024-01-10T05:49:45;101927.28;;;-6.88;100.00
75794;BME280;64418;47.536;19.074;2024-01-10T05:52:14;102033.91;;;-6.28;100.00
75794;BME280;64418;47.536;19.074;2024-01-10T05:54:50;102034.50;;;-6.44;100.00
75794;BME280;64418;47.536;19.074;2024-01-10T05:57:17;102025.47;;;-6.38;100.00
75794;BME280;64418;47.536;19.074;2024-01-10T05:59:44;102029.34;;;-6.47;100.00
75794;BME280;64418;47.536;19.074;2024-01-10T06:02:13;102024.81;;;-6.43;100.00
75794;BME280;64418;47.536;19.074;2024-01-10T06:04:39;102027.53;;;-6.23;100.00
75794;BME280;64418;47.536;19.074;2024-01-10T06:07:14;101940.19;;;-6.80;100.00
75794;BME280;64418;47.536;19.074;2024-01-10T06:09:41;102026.87;;;-6.28;100.00
75794;BME280;64418;47.536;19.074;2024-01-10T06:12:08;102021.34;;;-6.22;100.00
75794;BME280;64418;47.536;19.074;2024-01-10T06:14:40;102041.78;;;-6.27;100.00
75794;BME280;64418;47.536;19.074;2024-01-10T06:17:11;102036.72;;;-6.33;100.00
75794;BME280;64418;47.536;19.074;2024-01-10T06:19:37;102036.84;;;-6.36;100.00
75794;BME280;64418;47.536;19.074;2024-01-10T06:22:04;102041.72;;;-6.25;100.00
75794;BME280;64418;47.536;19.074;2024-01-10T06:24:33;102029.19;;;-6.42;100.00
75794;BME280;64418;47.536;19.074;2024-01-10T06:27:01;102038.31;;;-6.29;100.00
75794;BME280;64418;47.536;19.074;2024-01-10T06:29:54;101957.78;;;-6.83;100.00
75794;BME280;64418;47.536;19.074;2024-01-10T06:32:21;102036.25;;;-6.21;100.00
75794;BME280;64418;47.536;19.074;2024-01-10T06:34:47;102036.59;;;-6.30;100.00
75794;BME280;64418;47.536;19.074;2024-01-10T06:37:13;102040.06;;;-6.28;100.00
75794;BME280;64418;47.536;19.074;2024-01-10T06:39:42;102039.16;;;-6.27;100.00
75794;BME280;64418;47.536;19.074;2024-01-10T06:42:07;102043.34;;;-6.23;100.00
75794;BME280;64418;47.536;19.074;2024-01-10T06:44:34;102044.13;;;-6.19;100.00
75794;BME280;64418;47.536;19.074;2024-01-10T06:47:03;102038.19;;;-6.26;100.00
75794;BME280;64418;47.536;19.074;2024-01-10T06:49:30;102060.91;;;-6.22;100.00
75794;BME280;64418;47.536;19.074;2024-01-10T06:51:56;102061.75;;;-6.21;100.00
75794;BME280;64418;47.536;19.074;2024-01-10T06:54:22;102059.19;;;-6.23;100.00
75794;BME280;64418;47.536;19.074;2024-01-10T06:56:51;102063.41;;;-6.19;100.00
75794;BME280;64418;47.536;19.074;2024-01-10T06:59:18;102064.22;;;-6.17;100.00
75794;BME280;64418;47.536;19.074;2024-01-10T07:01:44;102071.31;;;-6.19;100.00
75794;BME280;64418;47.536;19.074;2024-01-10T07:04:11;102074.03;;;-6.20;100.00
75794;BME280;64418;47.536;19.074;2024-01-10T07:06:37;102062.88;;;-6.27;100.00
75794;BME280;64418;47.536;19.074;2024-01-10T07:09:03;102056.31;;;-6.17;100.00
75794;BME280;64418;47.536;19.074;2024-01-10T07:11:30;101983.34;;;-6.61;100.00
75794;BME280;64418;47.536;19.074;2024-01-10T07:13:58;102074.31;;;-6.05;100.00
75794;BME280;64418;47.536;19.074;2024-01-10T07:16:24;102071.44;;;-5.99;100.00
75794;BME280;64418;47.536;19.074;2024-01-10T07:18:50;102067.72;;;-5.93;100.00
75794;BME280;64418;47.536;19.074;2024-01-10T07:21:17;101987.06;;;-6.22;100.00
75794;BME280;64418;47.536;19.074;2024-01-10T07:23:45;102065.94;;;-5.72;100.00
75794;BME280;64418;47.536;19.074;2024-01-10T07:26:14;102064.22;;;-5.73;100.00
75794;BME280;64418;47.536;19.074;2024-01-10T07:28:44;102063.06;;;-5.66;100.00
75794;BME280;64418;47.536;19.074;2024-01-10T07:31:22;102066.94;;;-5.53;100.00
75794;BME280;64418;47.536;19.074;2024-01-10T07:39:01;102062.25;;;-5.25;100.00
75794;BME280;64418;47.536;19.074;2024-01-10T07:41:29;102006.47;;;-5.39;100.00
75794;BME280;64418;47.536;19.074;2024-01-10T07:44:01;102063.81;;;-5.01;100.00
75794;BME280;64418;47.536;19.074;2024-01-10T07:46:30;102067.13;;;-4.96;100.00
75794;BME280;64418;47.536;19.074;2024-01-10T07:49:05;102070.16;;;-4.84;100.00
75794;BME280;64418;47.536;19.074;2024-01-10T07:51:34;101982.53;;;-5.35;100.00
75794;BME280;64418;47.536;19.074;2024-01-10T07:54:02;102072.38;;;-4.75;100.00
75794;BME280;64418;47.536;19.074;2024-01-10T07:59:36;102068.63;;;-4.31;100.00
75794;BME280;64418;47.536;19.074;2024-01-10T08:02:05;102077.75;;;-3.63;100.00
75794;BME280;64418;47.536;19.074;2024-01-10T08:04:32;102078.84;;;-2.97;100.00
75794;BME280;64418;47.536;19.074;2024-01-10T08:06:59;102073.03;;;-2.54;100.00
75794;BME280;64418;47.536;19.074;2024-01-10T08:09:27;102074.50;;;-2.00;100.00
75794;BME280;64418;47.536;19.074;2024-01-10T08:11:57;102025.56;;;-2.11;99.45
75794;BME280;64418;47.536;19.074;2024-01-10T08:14:24;102077.84;;;-1.49;92.96
75794;BME280;64418;47.536;19.074;2024-01-10T08:16:50;102082.72;;;-1.41;85.61
75794;BME280;64418;47.536;19.074;2024-01-10T08:19:18;102082.66;;;-1.10;82.65
75794;BME280;64418;47.536;19.074;2024-01-10T08:21:45;102025.22;;;-0.99;80.38
75794;BME280;64418;47.536;19.074;2024-01-10T08:24:11;102083.84;;;-0.86;80.20
75794;BME280;64418;47.536;19.074;2024-01-10T08:26:42;102091.69;;;0.16;77.81
75794;BME280;64418;47.536;19.074;2024-01-10T08:31:47;102090.78;;;-0.25;75.83
75794;BME280;64418;47.536;19.074;2024-01-10T08:34:14;102098.28;;;-0.04;75.74
75794;BME280;64418;47.536;19.074;2024-01-10T08:36:50;102097.84;;;0.31;74.62
75794;BME280;64418;47.536;19.074;2024-01-10T08:39:20;102093.28;;;1.51;75.28
75794;BME280;64418;47.536;19.074;2024-01-10T08:41:50;102100.25;;;1.54;71.14
75794;BME280;64418;47.536;19.074;2024-01-10T08:44:20;102094.97;;;1.14;71.76
75794;BME280;64418;47.536;19.074;2024-01-10T08:49:38;102099.28;;;1.67;67.33
75794;BME280;64418;47.536;19.074;2024-01-10T08:52:08;102096.94;;;1.50;67.14
75794;BME280;64418;47.536;19.074;2024-01-10T08:54:41;102087.44;;;2.33;63.75
75794;BME280;64418;47.536;19.074;2024-01-10T08:59:49;102092.62;;;3.29;62.60
75794;BME280;64418;47.536;19.074;2024-01-10T09:02:22;102088.78;;;3.10;58.60
75794;BME280;64418;47.536;19.074;2024-01-10T09:04:50;102090.72;;;3.43;57.70
75794;BME280;64418;47.536;19.074;2024-01-10T09:07:28;102091.50;;;3.89;56.70
75794;BME280;64418;47.536;19.074;2024-01-10T09:15:05;102085.50;;;3.52;58.26
75794;BME280;64418;47.536;19.074;2024-01-10T09:25:30;102078.72;;;4.15;53.94
75794;BME280;64418;47.536;19.074;2024-01-10T09:43:34;102072.59;;;5.10;47.86
75794;BME280;64418;47.536;19.074;2024-01-10T09:46:01;102055.16;;;6.46;45.76
75794;BME280;64418;47.536;19.074;2024-01-10T09:48:28;102056.78;;;6.77;44.66
75794;BME280;64418;47.536;19.074;2024-01-10T09:51:03;102058.00;;;5.74;45.16
75794;BME280;64418;47.536;19.074;2024-01-10T09:53:36;102056.63;;;6.69;43.15
75794;BME280;64418;47.536;19.074;2024-01-10T09:58:45;102058.53;;;7.63;40.67
75794;BME280;64418;47.536;19.074;2024-01-10T10:01:16;102045.28;;;7.14;40.69
75794;BME280;64418;47.536;19.074;2024-01-10T10:11:29;102030.84;;;7.05;41.08
75794;BME280;64418;47.536;19.074;2024-01-10T10:14:00;101997.91;;;6.35;40.50
75794;BME280;64418;47.536;19.074;2024-01-10T10:16:40;102021.25;;;7.49;39.13
75794;BME280;64418;47.536;19.074;2024-01-10T10:19:07;102014.91;;;8.59;37.17
75794;BME280;64418;47.536;19.074;2024-01-10T10:21:33;102021.31;;;8.58;35.23
75794;BME280;64418;47.536;19.074;2024-01-10T10:24:01;102020.00;;;9.41;34.10
75794;BME280;64418;47.536;19.074;2024-01-10T10:31:51;102018.56;;;10.81;32.46
75794;BME280;64418;47.536;19.074;2024-01-10T10:34:32;102013.91;;;7.79;34.57
75794;BME280;64418;47.536;19.074;2024-01-10T10:37:01;102005.31;;;9.70;32.13
75794;BME280;64418;47.536;19.074;2024-01-10T10:39:28;102008.19;;;8.18;33.30
75794;BME280;64418;47.536;19.074;2024-01-10T10:42:10;101978.75;;;8.43;33.50
75794;BME280;64418;47.536;19.074;2024-01-10T10:44:41;101994.91;;;9.31;32.60
75794;BME280;64418;47.536;19.074;2024-01-10T10:47:13;101997.91;;;9.02;31.81
75794;BME280;64418;47.536;19.074;2024-01-10T10:49:47;101970.16;;;9.78;30.24
75794;BME280;64418;47.536;19.074;2024-01-10T10:52:17;101983.16;;;10.08;29.93
75794;BME280;64418;47.536;19.074;2024-01-10T10:54:48;101982.97;;;11.00;28.88
75794;BME280;64418;47.536;19.074;2024-01-10T10:57:19;101984.16;;;10.81;28.88
75794;BME280;64418;47.536;19.074;2024-01-10T10:59:45;101978.34;;;9.94;29.26
75794;BME280;64418;47.536;19.074;2024-01-10T11:02:20;101956.56;;;10.86;28.60
75794;BME280;64418;47.536;19.074;2024-01-10T11:04:50;101980.88;;;11.50;27.87
75794;BME280;64418;47.536;19.074;2024-01-10T11:07:25;101978.91;;;11.20;28.55
75794;BME280;64418;47.536;19.074;2024-01-10T11:09:54;101974.84;;;11.24;27.83
75794;BME280;64418;47.536;19.074;2024-01-10T11:12:33;101965.81;;;11.95;27.55
75794;BME280;64418;47.536;19.074;2024-01-10T11:15:19;101962.28;;;10.67;28.53
75794;BME280;64418;47.536;19.074;2024-01-10T11:18:08;101953.47;;;10.48;28.72
75794;BME280;64418;47.536;19.074;2024-01-10T11:24:00;101952.28;;;10.51;27.86
75794;BME280;64418;47.536;19.074;2024-01-10T11:26:27;101959.06;;;10.55;28.54
75794;BME280;64418;47.536;19.074;2024-01-10T11:28:54;101885.97;;;9.89;28.54
75794;BME280;64418;47.536;19.074;2024-01-10T11:31:28;101944.09;;;9.77;29.47
75794;BME280;64418;47.536;19.074;2024-01-10T11:34:01;101947.16;;;11.37;28.07
75794;BME280;64418;47.536;19.074;2024-01-10T11:36:27;101943.69;;;10.72;28.80
75794;BME280;64418;47.536;19.074;2024-01-10T11:38:56;101945.34;;;11.21;28.69
75794;BME280;64418;47.536;19.074;2024-01-10T11:41:24;101940.41;;;11.33;28.20
75794;BME280;64418;47.536;19.074;2024-01-10T11:44:25;101939.06;;;11.29;27.90
75794;BME280;64418;47.536;19.074;2024-01-10T11:46:59;101943.22;;;11.55;28.11
75794;BME280;64418;47.536;19.074;2024-01-10T11:49:29;101931.47;;;12.10;27.09
75794;BME280;64418;47.536;19.074;2024-01-10T11:51:57;101884.19;;;11.49;27.53
75794;BME280;64418;47.536;19.074;2024-01-10T11:54:41;101926.66;;;11.18;28.23
75794;BME280;64418;47.536;19.074;2024-01-10T11:57:11;101927.69;;;11.25;28.17
75794;BME280;64418;47.536;19.074;2024-01-10T11:59:42;101862.00;;;10.75;27.40
75794;BME280;64418;47.536;19.074;2024-01-10T12:02:10;101917.75;;;10.77;28.32
75794;BME280;64418;47.536;19.074;2024-01-10T12:04:38;101906.84;;;10.21;29.13
75794;BME280;64418;47.536;19.074;2024-01-10T12:07:05;101900.66;;;10.60;28.85
75794;BME280;64418;47.536;19.074;2024-01-10T12:09:32;101907.97;;;11.47;27.56
75794;BME280;64418;47.536;19.074;2024-01-10T12:12:03;101899.97;;;10.34;28.52
75794;BME280;64418;47.536;19.074;2024-01-10T12:14:30;101906.22;;;10.43;28.47
75794;BME280;64418;47.536;19.074;2024-01-10T12:16:57;101898.41;;;10.96;28.21
75794;BME280;64418;47.536;19.074;2024-01-10T12:19:27;101905.19;;;10.20;28.70
75794;BME280;64418;47.536;19.074;2024-01-10T12:22:03;101903.97;;;11.03;27.92
75794;BME280;64418;47.536;19.074;2024-01-10T12:24:33;101905.03;;;10.45;28.72
75794;BME280;64418;47.536;19.074;2024-01-10T12:27:00;101882.00;;;11.45;27.82
75794;BME280;64418;47.536;19.074;2024-01-10T12:29:26;101907.00;;;10.11;28.63
75794;BME280;64418;47.536;19.074;2024-01-10T12:31:53;101888.41;;;10.16;28.98
75794;BME280;64418;47.536;19.074;2024-01-10T12:34:23;101908.44;;;10.63;29.02
75794;BME280;64418;47.536;19.074;2024-01-10T12:36:57;101901.94;;;10.24;28.77
75794;BME280;64418;47.536;19.074;2024-01-10T12:39:24;101899.91;;;11.07;28.59
75794;BME280;64418;47.536;19.074;2024-01-10T12:44:28;101896.00;;;9.62;29.51
75794;BME280;64418;47.536;19.074;2024-01-10T12:46:57;101891.16;;;9.74;30.33
75794;BME280;64418;47.536;19.074;2024-01-10T12:49:24;101828.28;;;9.38;30.03
75794;BME280;64418;47.536;19.074;2024-01-10T12:51:51;101886.97;;;9.96;29.97
75794;BME280;64418;47.536;19.074;2024-01-10T12:54:24;101887.44;;;9.41;30.78
75794;BME280;64418;47.536;19.074;2024-01-10T12:56:52;101887.03;;;9.62;30.30
75794;BME280;64418;47.536;19.074;2024-01-10T12:59:18;101885.72;;;10.40;29.49
75794;BME280;64418;47.536;19.074;2024-01-10T13:01:44;101881.72;;;9.94;30.28
75794;BME280;64418;47.536;19.074;2024-01-10T13:04:12;101874.22;;;8.53;32.18
75794;BME280;64418;47.536;19.074;2024-01-10T13:06:39;101882.62;;;7.97;32.93
75794;BME280;64418;47.536;19.074;2024-01-10T13:09:05;101878.13;;;7.33;34.27
75794;BME280;64418;47.536;19.074;2024-01-10T13:11:34;101878.84;;;7.62;33.87
75794;BME280;64418;47.536;19.074;2024-01-10T13:14:01;101878.66;;;7.46;34.42
75794;BME280;64418;47.536;19.074;2024-01-10T13:16:28;101877.66;;;6.06;36.12
75794;BME280;64418;47.536;19.074;2024-01-10T13:18:54;101876.16;;;7.35;34.70
75794;BME280;64418;47.536;19.074;2024-01-10T13:21:21;101875.25;;;6.32;35.66
75794;BME280;64418;47.536;19.074;2024-01-10T13:23:47;101872.69;;;6.59;36.15
75794;BME280;64418;47.536;19.074;2024-01-10T13:26:16;101876.63;;;6.65;36.17
75794;BME280;64418;47.536;19.074;2024-01-10T13:28:44;101880.25;;;6.93;35.99
75794;BME280;64418;47.536;19.074;2024-01-10T13:31:10;101873.00;;;6.37;36.61
75794;BME280;64418;47.536;19.074;2024-01-10T13:33:37;101875.78;;;7.20;35.93
75794;BME280;64418;47.536;19.074;2024-01-10T13:36:05;101877.56;;;7.02;35.59
75794;BME280;64418;47.536;19.074;2024-01-10T13:38:36;101870.41;;;6.64;35.97
75794;BME280;64418;47.536;19.074;2024-01-10T13:41:06;101867.87;;;5.96;37.15
75794;BME280;64418;47.536;19.074;2024-01-10T13:43:33;101844.13;;;5.02;38.30
75794;BME280;64418;47.536;19.074;2024-01-10T13:46:04;101860.72;;;4.65;39.54
75794;BME280;64418;47.536;19.074;2024-01-10T13:48:31;101865.97;;;3.51;41.99
75794;BME280;64418;47.536;19.074;2024-01-10T13:50:57;101862.22;;;3.74;41.28
75794;BME280;64418;47.536;19.074;2024-01-10T13:53:23;101822.91;;;3.20;42.60
75794;BME280;64418;47.536;19.074;2024-01-10T13:55:50;101856.72;;;2.99;43.69
75794;BME280;64418;47.536;19.074;2024-01-10T13:58:21;101787.97;;;2.44;44.55
75794;BME280;64418;47.536;19.074;2024-01-10T14:00:49;101867.06;;;2.81;44.25
75794;BME280;64418;47.536;19.074;2024-01-10T14:03:23;101836.63;;;2.49;45.33
75794;BME280;64418;47.536;19.074;2024-01-10T14:05:51;101835.00;;;2.47;44.61
75794;BME280;64418;47.536;19.074;2024-01-10T14:08:18;101864.34;;;2.48;45.46
75794;BME280;64418;47.536;19.074;2024-01-10T14:10:46;101866.63;;;2.41;46.20
75794;BME280;64418;47.536;19.074;2024-01-10T14:13:20;101860.25;;;2.31;46.03
75794;BME280;64418;47.536;19.074;2024-01-10T14:15:47;101852.09;;;2.22;46.13
75794;BME280;64418;47.536;19.074;2024-01-10T14:18:14;101825.56;;;2.08;45.97
75794;BME280;64418;47.536;19.074;2024-01-10T14:20:46;101849.50;;;2.09;45.32
75794;BME280;64418;47.536;19.074;2024-01-10T14:23:16;101855.06;;;2.06;46.76
75794;BME280;64418;47.536;19.074;2024-01-10T14:25:42;101838.09;;;1.83;46.95
75794;BME280;64418;47.536;19.074;2024-01-10T14:28:08;101842.53;;;1.96;48.09
75794;BME280;64418;47.536;19.074;2024-01-10T14:30:35;101852.81;;;1.89;47.30
75794;BME280;64418;47.536;19.074;2024-01-10T14:33:02;101801.56;;;1.60;48.00
75794;BME280;64418;47.536;19.074;2024-01-10T14:35:29;101850.50;;;1.84;48.20
75794;BME280;64418;47.536;19.074;2024-01-10T14:38:00;101850.94;;;1.78;48.40
75794;BME280;64418;47.536;19.074;2024-01-10T14:40:27;101852.81;;;1.65;47.88
75794;BME280;64418;47.536;19.074;2024-01-10T14:42:53;101845.66;;;1.66;48.80
75794;BME280;64418;47.536;19.074;2024-01-10T14:45:19;101842.50;;;1.48;47.66
75794;BME280;64418;47.536;19.074;2024-01-10T14:47:46;101838.88;;;1.49;49.96
75794;BME280;64418;47.536;19.074;2024-01-10T14:50:12;101840.44;;;1.28;49.11
75794;BME280;64418;47.536;19.074;2024-01-10T14:52:39;101850.06;;;1.18;49.37
75794;BME280;64418;47.536;19.074;2024-01-10T14:55:08;101846.66;;;1.16;51.16
75794;BME280;64418;47.536;19.074;2024-01-10T14:57:34;101843.91;;;1.05;51.14
75794;BME280;64418;47.536;19.074;2024-01-10T15:00:00;101852.88;;;1.04;51.77
75794;BME280;64418;47.536;19.074;2024-01-10T15:02:26;101862.44;;;1.19;53.43
75794;BME280;64418;47.536;19.074;2024-01-10T15:04:52;101858.97;;;1.06;52.16
75794;BME280;64418;47.536;19.074;2024-01-10T15:07:18;101854.81;;;1.02;53.92
75794;BME280;64418;47.536;19.074;2024-01-10T15:09:46;101848.19;;;0.94;53.51
75794;BME280;64418;47.536;19.074;2024-01-10T15:12:14;101860.56;;;1.08;54.70
75794;BME280;64418;47.536;19.074;2024-01-10T15:14:40;101857.56;;;1.00;54.14
75794;BME280;64418;47.536;19.074;2024-01-10T15:17:07;101858.22;;;1.04;54.58
75794;BME280;64418;47.536;19.074;2024-01-10T15:19:33;101864.22;;;0.82;54.82